sensor_id;sensor_type;location;lat;lon;timestamp;pressure;altitude;pressure_sealevel;temperature;humidity
66887;BME280;67239;51.680;5.976;2023-07-13T00:02:23;101262.16;;;15.99;68.69
66887;BME280;67239;51.680;5.976;2023-07-13T00:04:51;101266.78;;;15.96;68.94
66887;BME280;67239;51.680;5.976;2023-07-13T00:07:19;101263.47;;;15.91;69.10
66887;BME280;67239;51.680;5.976;2023-07-13T00:09:50;101273.53;;;15.84;69.28
66887;BME280;67239;51.680;5.976;2023-07-13T00:12:32;101268.31;;;15.81;69.67
66887;BME280;67239;51.680;5.976;2023-07-13T00:15:07;101272.78;;;15.80;69.39
66887;BME280;67239;51.680;5.976;2023-07-13T00:17:40;101276.28;;;15.81;69.63
66887;BME280;67239;51.680;5.976;2023-07-13T00:20:07;101271.75;;;15.83;69.64
66887;BME280;67239;51.680;5.976;2023-07-13T00:22:36;101278.84;;;15.82;69.73
66887;BME280;67239;51.680;5.976;2023-07-13T00:25:03;101270.78;;;15.86;69.67
66887;BME280;67239;51.680;5.976;2023-07-13T00:27:31;101279.63;;;15.86;69.68
66887;BME280;67239;51.680;5.976;2023-07-13T00:29:59;101280.41;;;15.88;69.57
66887;BME280;67239;51.680;5.976;2023-07-13T00:32:26;101286.69;;;15.87;69.69
66887;BME280;67239;51.680;5.976;2023-07-13T00:34:54;101290.28;;;15.86;69.76
66887;BME280;67239;51.680;5.976;2023-07-13T00:37:23;101284.34;;;15.79;69.65
66887;BME280;67239;51.680;5.976;2023-07-13T00:39:50;101283.75;;;15.73;69.82
66887;BME280;67239;51.680;5.976;2023-07-13T00:42:18;101286.53;;;15.69;70.02
66887;BME280;67239;51.680;5.976;2023-07-13T00:45:04;101286.59;;;15.68;70.08
66887;BME280;67239;51.680;5.976;2023-07-13T00:47:43;101285.88;;;15.64;70.29
66887;BME280;67239;51.680;5.976;2023-07-13T00:50:14;101279.91;;;15.59;70.14
66887;BME280;67239;51.680;5.976;2023-07-13T00:52:48;101274.88;;;15.53;70.37
66887;BME280;67239;51.680;5.976;2023-07-13T00:55:20;101281.38;;;15.46;70.61
66887;BME280;67239;51.680;5.976;2023-07-13T00:57:49;101279.88;;;15.40;70.80
66887;BME280;67239;51.680;5.976;2023-07-13T01:00:16;101281.84;;;15.35;70.94
66887;BME280;67239;51.680;5.976;2023-07-13T01:02:47;101278.53;;;15.30;71.09
66887;BME280;67239;51.680;5.976;2023-07-13T01:05:19;101285.75;;;15.26;71.34
66887;BME280;67239;51.680;5.976;2023-07-13T01:07:49;101279.84;;;15.19;71.37
66887;BME280;67239;51.680;5.976;2023-07-13T01:10:22;101289.75;;;15.16;71.87
66887;BME280;67239;51.680;5.976;2023-07-13T01:12:49;101286.34;;;15.12;71.72
66887;BME280;67239;51.680;5.976;2023-07-13T01:15:53;101290.06;;;15.08;71.97
66887;BME280;67239;51.680;5.976;2023-07-13T01:18:27;101284.06;;;15.03;72.16
66887;BME280;67239;51.680;5.976;2023-07-13T01:20:57;101289.53;;;15.00;72.21
66887;BME280;67239;51.680;5.976;2023-07-13T01:23:28;101288.72;;;14.98;72.60
66887;BME280;67239;51.680;5.976;2023-07-13T01:25:56;101293.31;;;14.94;72.82
66887;BME280;67239;51.680;5.976;2023-07-13T01:28:27;101289.97;;;14.89;72.91
66887;BME280;67239;51.680;5.976;2023-07-13T01:30:57;101298.81;;;14.89;73.36
66887;BME280;67239;51.680;5.976;2023-07-13T01:33:26;101290.03;;;14.87;73.63
66887;BME280;67239;51.680;5.976;2023-07-13T01:35:53;101285.66;;;14.86;73.53
66887;BME280;67239;51.680;5.976;2023-07-13T01:38:23;101283.81;;;14.88;73.77
66887;BME280;67239;51.680;5.976;2023-07-13T01:40:52;101289.97;;;14.89;74.11
66887;BME280;67239;51.680;5.976;2023-07-13T01:43:19;101277.50;;;14.91;74.31
66887;BME280;67239;51.680;5.976;2023-07-13T01:45:48;101276.38;;;14.97;74.49
66887;BME280;67239;51.680;5.976;2023-07-13T01:48:15;101279.69;;;15.02;74.28
66887;BME280;67239;51.680;5.976;2023-07-13T01:50:42;101279.44;;;15.08;74.29
66887;BME280;67239;51.680;5.976;2023-07-13T01:53:10;101287.22;;;15.13;74.27
66887;BME280;67239;51.680;5.976;2023-07-13T01:55:38;101291.53;;;15.15;74.10
66887;BME280;67239;51.680;5.976;2023-07-13T01:58:07;101292.44;;;15.14;74.06
66887;BME280;67239;51.680;5.976;2023-07-13T02:00:35;101289.88;;;15.13;74.20
66887;BME280;67239;51.680;5.976;2023-07-13T02:03:02;101289.06;;;15.11;74.24
66887;BME280;67239;51.680;5.976;2023-07-13T02:05:31;101289.16;;;15.09;74.40
66887;BME280;67239;51.680;5.976;2023-07-13T02:07:58;101291.81;;;15.09;74.52
66887;BME280;67239;51.680;5.976;2023-07-13T02:10:26;101282.03;;;15.10;74.61
66887;BME280;67239;51.680;5.976;2023-07-13T02:12:53;101275.88;;;15.09;74.55
66887;BME280;67239;51.680;5.976;2023-07-13T02:15:21;101290.06;;;15.08;74.60
66887;BME280;67239;51.680;5.976;2023-07-13T02:17:48;101283.75;;;15.11;74.74
66887;BME280;67239;51.680;5.976;2023-07-13T02:20:15;101284.56;;;15.13;74.92
66887;BME280;67239;51.680;5.976;2023-07-13T02:22:42;101281.84;;;15.14;75.10
66887;BME280;67239;51.680;5.976;2023-07-13T02:25:09;101280.97;;;15.14;75.18
66887;BME280;67239;51.680;5.976;2023-07-13T02:27:37;101280.97;;;15.14;75.21
66887;BME280;67239;51.680;5.976;2023-07-13T02:30:04;101285.41;;;15.13;75.14
66887;BME280;67239;51.680;5.976;2023-07-13T02:32:32;101288.06;;;15.13;75.22
66887;BME280;67239;51.680;5.976;2023-07-13T02:35:00;101287.25;;;15.11;75.15
66887;BME280;67239;51.680;5.976;2023-07-13T02:37:28;101289.16;;;15.09;75.34
66887;BME280;67239;51.680;5.976;2023-07-13T02:39:56;101289.25;;;15.06;75.27
66887;BME280;67239;51.680;5.976;2023-07-13T02:42:24;101288.53;;;15.02;75.31
66887;BME280;67239;51.680;5.976;2023-07-13T02:44:51;101293.16;;;14.97;75.49
66887;BME280;67239;51.680;5.976;2023-07-13T02:47:18;101289.88;;;14.90;75.42
66887;BME280;67239;51.680;5.976;2023-07-13T02:49:45;101292.69;;;14.87;75.86
66887;BME280;67239;51.680;5.976;2023-07-13T02:52:13;101294.63;;;14.84;75.91
66887;BME280;67239;51.680;5.976;2023-07-13T02:54:40;101292.06;;;14.81;76.20
66887;BME280;67239;51.680;5.976;2023-07-13T02:57:07;101306.25;;;14.80;76.23
66887;BME280;67239;51.680;5.976;2023-07-13T02:59:34;101305.34;;;14.81;76.38
66887;BME280;67239;51.680;5.976;2023-07-13T03:02:02;101302.75;;;14.79;76.66
66887;BME280;67239;51.680;5.976;2023-07-13T03:04:30;101306.25;;;14.80;76.92
66887;BME280;67239;51.680;5.976;2023-07-13T03:06:57;101307.06;;;14.82;77.20
66887;BME280;67239;51.680;5.976;2023-07-13T03:09:34;101304.34;;;14.83;77.63
66887;BME280;67239;51.680;5.976;2023-07-13T03:12:04;101310.53;;;14.84;77.76
66887;BME280;67239;51.680;5.976;2023-07-13T03:14:32;101312.38;;;14.82;77.73
66887;BME280;67239;51.680;5.976;2023-07-13T03:17:02;101315.03;;;14.82;77.71
66887;BME280;67239;51.680;5.976;2023-07-13T03:19:32;101311.56;;;14.80;77.56
66887;BME280;67239;51.680;5.976;2023-07-13T03:22:02;101324.91;;;14.78;77.83
66887;BME280;67239;51.680;5.976;2023-07-13T03:24:30;101311.69;;;14.77;77.99
66887;BME280;67239;51.680;5.976;2023-07-13T03:27:00;101317.13;;;14.73;78.40
66887;BME280;67239;51.680;5.976;2023-07-13T03:29:28;101320.84;;;14.69;78.38
66887;BME280;67239;51.680;5.976;2023-07-13T03:31:56;101320.91;;;14.66;78.44
66887;BME280;67239;51.680;5.976;2023-07-13T03:34:23;101328.03;;;14.66;78.75
66887;BME280;67239;51.680;5.976;2023-07-13T03:36:54;101325.44;;;14.64;78.86
66887;BME280;67239;51.680;5.976;2023-07-13T03:39:22;101331.53;;;14.66;78.77
66887;BME280;67239;51.680;5.976;2023-07-13T03:41:53;101332.44;;;14.67;78.97
66887;BME280;67239;51.680;5.976;2023-07-13T03:44:21;101336.81;;;14.68;79.03
66887;BME280;67239;51.680;5.976;2023-07-13T03:46:53;101332.44;;;14.67;79.09
66887;BME280;67239;51.680;5.976;2023-07-13T03:49:20;101331.59;;;14.65;79.17
66887;BME280;67239;51.680;5.976;2023-07-13T03:51:48;101343.06;;;14.65;79.42
66887;BME280;67239;51.680;5.976;2023-07-13T03:54:19;101333.28;;;14.67;79.35
66887;BME280;67239;51.680;5.976;2023-07-13T03:56:47;101336.81;;;14.68;79.76
66887;BME280;67239;51.680;5.976;2023-07-13T03:59:15;101342.06;;;14.69;79.86
66887;BME280;67239;51.680;5.976;2023-07-13T04:01:44;101339.34;;;14.71;79.84
66887;BME280;67239;51.680;5.976;2023-07-13T04:04:12;101341.88;;;14.74;80.05
66887;BME280;67239;51.680;5.976;2023-07-13T04:06:39;101340.78;;;14.80;79.85
66887;BME280;67239;51.680;5.976;2023-07-13T04:09:07;101350.16;;;14.88;79.82
66887;BME280;67239;51.680;5.976;2023-07-13T04:11:36;101354.41;;;14.93;79.65
66887;BME280;67239;51.680;5.976;2023-07-13T04:14:03;101352.47;;;14.96;79.72
66887;BME280;67239;51.680;5.976;2023-07-13T04:16:31;101361.25;;;14.98;79.79
66887;BME280;67239;51.680;5.976;2023-07-13T04:18:59;101356.75;;;15.00;79.30
66887;BME280;67239;51.680;5.976;2023-07-13T04:21:29;101351.19;;;15.06;79.11
66887;BME280;67239;51.680;5.976;2023-07-13T04:23:58;101344.81;;;15.11;79.04
66887;BME280;67239;51.680;5.976;2023-07-13T04:26:25;101349.94;;;15.15;79.25
66887;BME280;67239;51.680;5.976;2023-07-13T04:28:52;101351.50;;;15.21;79.40
66887;BME280;67239;51.680;5.976;2023-07-13T04:31:19;101351.28;;;15.26;79.20
66887;BME280;67239;51.680;5.976;2023-07-13T04:33:47;101351.97;;;15.31;79.21
66887;BME280;67239;51.680;5.976;2023-07-13T04:36:16;101355.38;;;15.34;79.20
66887;BME280;67239;51.680;5.976;2023-07-13T04:38:43;101357.63;;;15.44;78.89
66887;BME280;67239;51.680;5.976;2023-07-13T04:41:13;101361.66;;;15.52;78.65
66887;BME280;67239;51.680;5.976;2023-07-13T04:43:42;101361.22;;;15.63;78.33
66887;BME280;67239;51.680;5.976;2023-07-13T04:46:12;101369.63;;;15.95;77.21
66887;BME280;67239;51.680;5.976;2023-07-13T04:48:42;101359.94;;;16.33;75.56
66887;BME280;67239;51.680;5.976;2023-07-13T04:51:09;101360.03;;;16.31;75.42
66887;BME280;67239;51.680;5.976;2023-07-13T04:53:37;101364.25;;;16.35;75.36
66887;BME280;67239;51.680;5.976;2023-07-13T04:56:04;101363.69;;;16.67;74.20
66887;BME280;67239;51.680;5.976;2023-07-13T04:58:33;101368.00;;;16.69;74.12
66887;BME280;67239;51.680;5.976;2023-07-13T05:01:04;101379.78;;;16.44;74.84
66887;BME280;67239;51.680;5.976;2023-07-13T05:03:33;101378.78;;;16.28;75.71
66887;BME280;67239;51.680;5.976;2023-07-13T05:06:04;101383.53;;;16.21;76.14
66887;BME280;67239;51.680;5.976;2023-07-13T05:08:33;101390.78;;;16.18;76.65
66887;BME280;67239;51.680;5.976;2023-07-13T05:11:01;101389.72;;;16.22;76.68
66887;BME280;67239;51.680;5.976;2023-07-13T05:13:30;101384.25;;;16.25;76.49
66887;BME280;67239;51.680;5.976;2023-07-13T05:16:03;101391.25;;;16.27;76.78
66887;BME280;67239;51.680;5.976;2023-07-13T05:18:33;101384.13;;;16.47;76.35
66887;BME280;67239;51.680;5.976;2023-07-13T05:21:06;101391.31;;;16.64;76.02
66887;BME280;67239;51.680;5.976;2023-07-13T05:23:36;101391.06;;;16.88;75.30
66887;BME280;67239;51.680;5.976;2023-07-13T05:26:04;101389.84;;;17.14;75.02
66887;BME280;67239;51.680;5.976;2023-07-13T05:28:36;101396.31;;;17.28;74.31
66887;BME280;67239;51.680;5.976;2023-07-13T05:31:05;101398.84;;;17.12;74.33
66887;BME280;67239;51.680;5.976;2023-07-13T05:33:35;101400.25;;;17.01;75.28
66887;BME280;67239;51.680;5.976;2023-07-13T05:36:02;101400.38;;;16.98;75.74
66887;BME280;67239;51.680;5.976;2023-07-13T05:38:30;101408.50;;;16.95;75.75
66887;BME280;67239;51.680;5.976;2023-07-13T05:40:57;101406.84;;;16.92;75.90
66887;BME280;67239;51.680;5.976;2023-07-13T05:43:25;101411.13;;;16.97;76.30
66887;BME280;67239;51.680;5.976;2023-07-13T05:45:54;101414.28;;;17.05;76.23
66887;BME280;67239;51.680;5.976;2023-07-13T05:48:23;101408.81;;;17.08;76.65
66887;BME280;67239;51.680;5.976;2023-07-13T05:50:52;101417.03;;;17.03;76.55
66887;BME280;67239;51.680;5.976;2023-07-13T05:53:20;101413.78;;;16.97;76.95
66887;BME280;67239;51.680;5.976;2023-07-13T05:55:48;101419.50;;;17.06;77.34
66887;BME280;67239;51.680;5.976;2023-07-13T05:58:20;101429.66;;;17.17;77.40
66887;BME280;67239;51.680;5.976;2023-07-13T06:01:05;101425.59;;;17.28;77.13
66887;BME280;67239;51.680;5.976;2023-07-13T06:03:34;101427.63;;;17.40;77.08
66887;BME280;67239;51.680;5.976;2023-07-13T06:06:01;101423.56;;;17.50;76.88
66887;BME280;67239;51.680;5.976;2023-07-13T06:08:30;101429.69;;;17.52;76.80
66887;BME280;67239;51.680;5.976;2023-07-13T06:11:30;101430.09;;;17.45;77.04
66887;BME280;67239;51.680;5.976;2023-07-13T06:13:57;101427.34;;;17.46;77.11
66887;BME280;67239;51.680;5.976;2023-07-13T06:16:25;101433.38;;;17.50;77.21
66887;BME280;67239;51.680;5.976;2023-07-13T06:18:52;101432.78;;;17.62;77.04
66887;BME280;67239;51.680;5.976;2023-07-13T06:21:21;101430.44;;;17.74;76.13
66887;BME280;67239;51.680;5.976;2023-07-13T06:23:50;101431.19;;;17.76;75.93
66887;BME280;67239;51.680;5.976;2023-07-13T06:26:19;101443.19;;;17.84;76.12
66887;BME280;67239;51.680;5.976;2023-07-13T06:28:47;101440.28;;;17.89;75.93
66887;BME280;67239;51.680;5.976;2023-07-13T06:31:15;101446.06;;;17.99;75.92
66887;BME280;67239;51.680;5.976;2023-07-13T06:33:43;101450.22;;;18.05;75.81
66887;BME280;67239;51.680;5.976;2023-07-13T06:36:11;101448.94;;;18.12;76.06
66887;BME280;67239;51.680;5.976;2023-07-13T06:38:39;101459.28;;;18.18;75.83
66887;BME280;67239;51.680;5.976;2023-07-13T06:41:07;101462.66;;;18.22;75.96
66887;BME280;67239;51.680;5.976;2023-07-13T06:43:36;101456.22;;;18.26;75.58
66887;BME280;67239;51.680;5.976;2023-07-13T06:46:03;101455.38;;;18.25;75.42
66887;BME280;67239;51.680;5.976;2023-07-13T06:48:31;101450.97;;;18.24;75.35
66887;BME280;67239;51.680;5.976;2023-07-13T06:50:58;101457.84;;;18.28;74.87
66887;BME280;67239;51.680;5.976;2023-07-13T06:53:25;101460.03;;;18.38;75.01
66887;BME280;67239;51.680;5.976;2023-07-13T06:55:52;101459.53;;;18.47;74.67
66887;BME280;67239;51.680;5.976;2023-07-13T06:58:20;101455.88;;;18.66;74.18
66887;BME280;67239;51.680;5.976;2023-07-13T07:00:50;101452.25;;;18.83;73.52
66887;BME280;67239;51.680;5.976;2023-07-13T07:03:19;101465.91;;;19.10;72.86
66887;BME280;67239;51.680;5.976;2023-07-13T07:05:47;101454.09;;;19.46;72.00
66887;BME280;67239;51.680;5.976;2023-07-13T07:08:14;101464.47;;;19.67;71.25
66887;BME280;67239;51.680;5.976;2023-07-13T07:10:42;101467.66;;;19.74;70.69
66887;BME280;67239;51.680;5.976;2023-07-13T07:13:09;101463.19;;;19.58;69.64
66887;BME280;67239;51.680;5.976;2023-07-13T07:15:36;101473.22;;;19.38;70.09
66887;BME280;67239;51.680;5.976;2023-07-13T07:18:03;101474.88;;;19.25;70.77
66887;BME280;67239;51.680;5.976;2023-07-13T07:20:31;101476.88;;;19.21;71.01
66887;BME280;67239;51.680;5.976;2023-07-13T07:22:59;101476.09;;;19.19;71.43
66887;BME280;67239;51.680;5.976;2023-07-13T07:25:27;101479.97;;;19.14;71.89
66887;BME280;67239;51.680;5.976;2023-07-13T07:27:58;101486.28;;;19.13;71.85
66887;BME280;67239;51.680;5.976;2023-07-13T07:30:29;101487.22;;;19.12;71.83
66887;BME280;67239;51.680;5.976;2023-07-13T07:32:59;101488.25;;;19.09;71.81
66887;BME280;67239;51.680;5.976;2023-07-13T07:35:31;101485.56;;;19.09;71.83
66887;BME280;67239;51.680;5.976;2023-07-13T07:38:03;101485.75;;;19.06;71.81
66887;BME280;67239;51.680;5.976;2023-07-13T07:40:31;101475.34;;;19.01;72.30
66887;BME280;67239;51.680;5.976;2023-07-13T07:43:01;101488.59;;;19.03;72.00
66887;BME280;67239;51.680;5.976;2023-07-13T07:45:28;101494.53;;;19.08;72.09
66887;BME280;67239;51.680;5.976;2023-07-13T07:47:55;101491.63;;;19.13;71.97
66887;BME280;67239;51.680;5.976;2023-07-13T07:50:26;101496.19;;;19.27;71.66
66887;BME280;67239;51.680;5.976;2023-07-13T07:52:54;101499.53;;;19.30;71.06
66887;BME280;67239;51.680;5.976;2023-07-13T07:55:25;101498.75;;;19.28;71.06
66887;BME280;67239;51.680;5.976;2023-07-13T07:57:58;101495.66;;;19.20;71.40
66887;BME280;67239;51.680;5.976;2023-07-13T08:00:28;101490.66;;;19.14;70.67
66887;BME280;67239;51.680;5.976;2023-07-13T08:03:18;101494.47;;;19.09;71.05
66887;BME280;67239;51.680;5.976;2023-07-13T08:05:48;101494.38;;;19.11;71.02
66887;BME280;67239;51.680;5.976;2023-07-13T08:08:35;101488.59;;;19.19;71.44
66887;BME280;67239;51.680;5.976;2023-07-13T08:11:04;101501.06;;;19.34;71.53
66887;BME280;67239;51.680;5.976;2023-07-13T08:13:52;101489.34;;;19.53;70.73
66887;BME280;67239;51.680;5.976;2023-07-13T08:16:22;101493.13;;;19.65;70.35
66887;BME280;67239;51.680;5.976;2023-07-13T08:18:50;101487.78;;;19.79;70.12
66887;BME280;67239;51.680;5.976;2023-07-13T08:21:17;101493.84;;;19.99;69.83
66887;BME280;67239;51.680;5.976;2023-07-13T08:23:47;101491.44;;;20.09;68.48
66887;BME280;67239;51.680;5.976;2023-07-13T08:26:14;101486.97;;;20.09;68.31
66887;BME280;67239;51.680;5.976;2023-07-13T08:28:41;101489.84;;;20.21;68.33
66887;BME280;67239;51.680;5.976;2023-07-13T08:31:09;101488.22;;;20.18;66.90
66887;BME280;67239;51.680;5.976;2023-07-13T08:33:37;101487.44;;;20.16;67.40
66887;BME280;67239;51.680;5.976;2023-07-13T08:36:05;101490.44;;;20.26;67.81
66887;BME280;67239;51.680;5.976;2023-07-13T08:38:33;101488.06;;;20.50;67.17
66887;BME280;67239;51.680;5.976;2023-07-13T08:41:09;101491.03;;;20.74;66.83
66887;BME280;67239;51.680;5.976;2023-07-13T08:43:41;101484.22;;;20.98;66.02
66887;BME280;67239;51.680;5.976;2023-07-13T08:46:36;101480.38;;;21.02;65.23
66887;BME280;67239;51.680;5.976;2023-07-13T08:49:06;101484.13;;;20.99;65.09
66887;BME280;67239;51.680;5.976;2023-07-13T08:54:26;101481.44;;;20.99;64.66
66887;BME280;67239;51.680;5.976;2023-07-13T08:57:13;101479.06;;;20.94;64.75
66887;BME280;67239;51.680;5.976;2023-07-13T08:59:46;101473.94;;;21.19;64.91
66887;BME280;67239;51.680;5.976;2023-07-13T09:02:26;101488.47;;;21.29;63.85
66887;BME280;67239;51.680;5.976;2023-07-13T09:05:04;101493.97;;;21.40;64.23
66887;BME280;67239;51.680;5.976;2023-07-13T09:07:58;101486.63;;;21.57;63.41
66887;BME280;67239;51.680;5.976;2023-07-13T09:10:49;101490.56;;;21.66;61.69
66887;BME280;67239;51.680;5.976;2023-07-13T09:16:03;101483.38;;;21.79;61.11
66887;BME280;67239;51.680;5.976;2023-07-13T09:18:49;101482.66;;;21.90;59.25
66887;BME280;67239;51.680;5.976;2023-07-13T09:21:27;101484.44;;;21.77;59.66
66887;BME280;67239;51.680;5.976;2023-07-13T09:24:04;101489.38;;;21.83;59.35
66887;BME280;67239;51.680;5.976;2023-07-13T09:26:59;101490.06;;;21.86;57.95
66887;BME280;67239;51.680;5.976;2023-07-13T09:29:33;101487.06;;;21.91;58.30
66887;BME280;67239;51.680;5.976;2023-07-13T09:32:07;101490.28;;;21.96;57.94
66887;BME280;67239;51.680;5.976;2023-07-13T09:34:39;101483.94;;;21.84;57.83
66887;BME280;67239;51.680;5.976;2023-07-13T09:37:06;101490.72;;;21.90;57.14
66887;BME280;67239;51.680;5.976;2023-07-13T09:39:37;101490.91;;;21.87;56.58
66887;BME280;67239;51.680;5.976;2023-07-13T09:44:49;101477.44;;;22.27;56.27
66887;BME280;67239;51.680;5.976;2023-07-13T09:47:25;101483.56;;;22.42;55.76
66887;BME280;67239;51.680;5.976;2023-07-13T09:49:59;101484.94;;;22.61;55.56
66887;BME280;67239;51.680;5.976;2023-07-13T09:53:00;101486.22;;;22.81;54.63
66887;BME280;67239;51.680;5.976;2023-07-13T09:55:35;101489.09;;;22.91;54.62
66887;BME280;67239;51.680;5.976;2023-07-13T09:58:15;101480.13;;;23.03;54.44
66887;BME280;67239;51.680;5.976;2023-07-13T10:00:58;101477.84;;;23.23;52.82
66887;BME280;67239;51.680;5.976;2023-07-13T10:03:29;101478.03;;;23.33;52.31
66887;BME280;67239;51.680;5.976;2023-07-13T10:06:17;101483.25;;;23.58;52.42
66887;BME280;67239;51.680;5.976;2023-07-13T10:08:46;101488.69;;;23.70;51.17
66887;BME280;67239;51.680;5.976;2023-07-13T10:11:23;101488.88;;;23.91;50.08
66887;BME280;67239;51.680;5.976;2023-07-13T10:13:56;101478.31;;;23.77;49.63
66887;BME280;67239;51.680;5.976;2023-07-13T10:16:25;101483.69;;;23.77;49.66
66887;BME280;67239;51.680;5.976;2023-07-13T10:19:08;101488.88;;;23.91;48.95
66887;BME280;67239;51.680;5.976;2023-07-13T10:21:54;101480.50;;;24.07;48.79
66887;BME280;67239;51.680;5.976;2023-07-13T10:24:23;101473.78;;;24.13;49.42
66887;BME280;67239;51.680;5.976;2023-07-13T10:26:57;101476.50;;;24.24;49.21
66887;BME280;67239;51.680;5.976;2023-07-13T10:29:40;101479.72;;;24.41;49.28
66887;BME280;67239;51.680;5.976;2023-07-13T10:32:13;101487.66;;;24.42;48.13
66887;BME280;67239;51.680;5.976;2023-07-13T10:34:43;101479.94;;;24.38;47.82
66887;BME280;67239;51.680;5.976;2023-07-13T10:37:18;101470.25;;;24.58;48.21
66887;BME280;67239;51.680;5.976;2023-07-13T10:39:50;101476.25;;;24.95;47.60
66887;BME280;67239;51.680;5.976;2023-07-13T10:44:53;101467.50;;;25.58;45.03
66887;BME280;67239;51.680;5.976;2023-07-13T10:47:20;101468.97;;;25.63;43.91
66887;BME280;67239;51.680;5.976;2023-07-13T10:49:54;101477.03;;;25.30;43.96
66887;BME280;67239;51.680;5.976;2023-07-13T10:58:36;101503.94;;;24.52;44.30
66887;BME280;67239;51.680;5.976;2023-07-13T11:01:14;101490.97;;;24.57;44.09
66887;BME280;67239;51.680;5.976;2023-07-13T11:06:43;101492.91;;;24.55;44.97
66887;BME280;67239;51.680;5.976;2023-07-13T11:12:18;101504.81;;;24.53;45.84
66887;BME280;67239;51.680;5.976;2023-07-13T11:15:13;101498.06;;;24.47;44.63
66887;BME280;67239;51.680;5.976;2023-07-13T11:17:53;101489.75;;;24.50;45.65
66887;BME280;67239;51.680;5.976;2023-07-13T11:23:18;101492.91;;;23.85;46.00
66887;BME280;67239;51.680;5.976;2023-07-13T11:25:53;101498.44;;;23.35;46.92
66887;BME280;67239;51.680;5.976;2023-07-13T11:28:25;101500.88;;;23.01;48.43
66887;BME280;67239;51.680;5.976;2023-07-13T11:36:04;101576.09;;;21.00;60.31
66887;BME280;67239;51.680;5.976;2023-07-13T11:38:39;101565.91;;;19.86;62.61
66887;BME280;67239;51.680;5.976;2023-07-13T11:41:31;101560.03;;;18.99;66.25
66887;BME280;67239;51.680;5.976;2023-07-13T11:44:14;101570.41;;;18.54;69.44
66887;BME280;67239;51.680;5.976;2023-07-13T11:46:48;101571.25;;;18.55;71.64
66887;BME280;67239;51.680;5.976;2023-07-13T11:49:25;101566.16;;;18.50;73.06
66887;BME280;67239;51.680;5.976;2023-07-13T11:51:59;101563.97;;;18.41;73.33
66887;BME280;67239;51.680;5.976;2023-07-13T11:54:31;101561.41;;;18.39;74.76
66887;BME280;67239;51.680;5.976;2023-07-13T11:57:10;101562.53;;;18.51;73.48
66887;BME280;67239;51.680;5.976;2023-07-13T11:59:51;101570.22;;;18.57;74.36
66887;BME280;67239;51.680;5.976;2023-07-13T12:02:33;101569.69;;;18.68;74.73
66887;BME280;67239;51.680;5.976;2023-07-13T12:05:06;101576.56;;;18.72;74.88
66887;BME280;67239;51.680;5.976;2023-07-13T12:07:39;101594.50;;;18.70;75.88
66887;BME280;67239;51.680;5.976;2023-07-13T12:13:02;101580.31;;;18.35;76.70
66887;BME280;67239;51.680;5.976;2023-07-13T12:15:39;101584.22;;;18.10;78.58
66887;BME280;67239;51.680;5.976;2023-07-13T12:18:14;101575.22;;;17.93;79.93
66887;BME280;67239;51.680;5.976;2023-07-13T12:20:42;101562.13;;;17.89;80.63
66887;BME280;67239;51.680;5.976;2023-07-13T12:23:24;101555.47;;;17.97;81.26
66887;BME280;67239;51.680;5.976;2023-07-13T12:25:57;101551.03;;;18.15;79.95
66887;BME280;67239;51.680;5.976;2023-07-13T12:28:37;101547.22;;;18.55;78.29
66887;BME280;67239;51.680;5.976;2023-07-13T12:31:26;101536.31;;;18.93;79.07
66887;BME280;67239;51.680;5.976;2023-07-13T12:34:06;101535.34;;;19.12;80.20
66887;BME280;67239;51.680;5.976;2023-07-13T12:36:38;101545.94;;;19.45;75.12
66887;BME280;67239;51.680;5.976;2023-07-13T12:41:44;101544.91;;;19.94;75.61
66887;BME280;67239;51.680;5.976;2023-07-13T12:44:25;101547.56;;;20.10;74.81
66887;BME280;67239;51.680;5.976;2023-07-13T12:47:14;101539.41;;;20.28;74.01
66887;BME280;67239;51.680;5.976;2023-07-13T12:49:52;101546.09;;;20.35;73.20
66887;BME280;67239;51.680;5.976;2023-07-13T12:52:24;101545.34;;;20.47;74.90
66887;BME280;67239;51.680;5.976;2023-07-13T12:55:12;101546.69;;;20.55;75.12
66887;BME280;67239;51.680;5.976;2023-07-13T12:57:56;101549.69;;;20.64;75.80
66887;BME280;67239;51.680;5.976;2023-07-13T13:00:53;101548.16;;;20.89;75.66
66887;BME280;67239;51.680;5.976;2023-07-13T13:06:21;101547.09;;;21.21;73.62
66887;BME280;67239;51.680;5.976;2023-07-13T13:08:53;101548.22;;;21.31;72.39
66887;BME280;67239;51.680;5.976;2023-07-13T13:11:24;101539.66;;;21.39;73.52
66887;BME280;67239;51.680;5.976;2023-07-13T13:13:52;101541.22;;;21.56;74.64
66887;BME280;67239;51.680;5.976;2023-07-13T13:16:21;101532.94;;;21.74;75.77
66887;BME280;67239;51.680;5.976;2023-07-13T13:19:21;101529.59;;;22.23;75.14
66887;BME280;67239;51.680;5.976;2023-07-13T13:21:54;101528.91;;;22.60;73.58
66887;BME280;67239;51.680;5.976;2023-07-13T13:24:26;101532.22;;;22.89;70.16
66887;BME280;67239;51.680;5.976;2023-07-13T13:26:55;101532.16;;;23.28;70.92
66887;BME280;67239;51.680;5.976;2023-07-13T13:29:31;101526.59;;;23.42;69.05
66887;BME280;67239;51.680;5.976;2023-07-13T13:32:00;101529.75;;;23.36;68.78
66887;BME280;67239;51.680;5.976;2023-07-13T13:34:27;101529.47;;;23.28;69.51
66887;BME280;67239;51.680;5.976;2023-07-13T13:36:54;101522.59;;;23.24;67.31
66887;BME280;67239;51.680;5.976;2023-07-13T13:39:35;101528.19;;;23.21;64.56
66887;BME280;67239;51.680;5.976;2023-07-13T13:42:04;101534.75;;;23.17;66.80
66887;BME280;67239;51.680;5.976;2023-07-13T13:44:32;101538.72;;;23.24;66.43
66887;BME280;67239;51.680;5.976;2023-07-13T13:47:00;101527.47;;;23.43;65.17
66887;BME280;67239;51.680;5.976;2023-07-13T13:49:29;101529.00;;;23.34;64.10
66887;BME280;67239;51.680;5.976;2023-07-13T13:51:57;101524.44;;;23.23;65.54
66887;BME280;67239;51.680;5.976;2023-07-13T13:54:26;101532.25;;;23.14;64.71